sensor_id;sensor_type;location;lat;lon;timestamp;temperature;humidity
28460;DHT22;32528;45.712;9.192;2023-02-08T00:00:23;-0.20;92.70
28460;DHT22;32528;45.712;9.192;2023-02-08T00:02:25;-0.20;92.70
28460;DHT22;32528;45.712;9.192;2023-02-08T00:04:25;-0.30;92.70
28460;DHT22;32528;45.712;9.192;2023-02-08T00:06:26;-0.30;92.80
28460;DHT22;32528;45.712;9.192;2023-02-08T00:08:27;-0.20;92.30
28460;DHT22;32528;45.712;9.192;2023-02-08T00:10:29;-0.20;92.40
28460;DHT22;32528;45.712;9.192;2023-02-08T00:12:30;-0.20;92.50
28460;DHT22;32528;45.712;9.192;2023-02-08T00:14:31;-0.30;92.80
28460;DHT22;32528;45.712;9.192;2023-02-08T00:16:31;-0.30;92.80
28460;DHT22;32528;45.712;9.192;2023-02-08T00:18:32;-0.30;92.80
28460;DHT22;32528;45.712;9.192;2023-02-08T00:20:33;-0.40;92.90
28460;DHT22;32528;45.712;9.192;2023-02-08T00:22:33;-0.40;93.00
28460;DHT22;32528;45.712;9.192;2023-02-08T00:24:34;-0.40;93.10
28460;DHT22;32528;45.712;9.192;2023-02-08T00:26:35;-0.50;93.10
28460;DHT22;32528;45.712;9.192;2023-02-08T00:28:35;-0.50;93.30
28460;DHT22;32528;45.712;9.192;2023-02-08T00:30:36;-0.50;93.40
28460;DHT22;32528;45.712;9.192;2023-02-08T00:32:37;-0.50;93.50
28460;DHT22;32528;45.712;9.192;2023-02-08T00:34:38;-0.50;93.40
28460;DHT22;32528;45.712;9.192;2023-02-08T00:36:38;-0.60;93.30
28460;DHT22;32528;45.712;9.192;2023-02-08T00:38:39;-0.40;92.80
28460;DHT22;32528;45.712;9.192;2023-02-08T00:40:40;-0.40;92.80
28460;DHT22;32528;45.712;9.192;2023-02-08T00:42:41;-0.20;92.40
28460;DHT22;32528;45.712;9.192;2023-02-08T00:44:42;-0.30;92.50
28460;DHT22;32528;45.712;9.192;2023-02-08T00:46:43;-0.30;92.70
28460;DHT22;32528;45.712;9.192;2023-02-08T00:48:44;-0.40;92.90
28460;DHT22;32528;45.712;9.192;2023-02-08T00:51:03;-0.40;92.90
28460;DHT22;32528;45.712;9.192;2023-02-08T00:53:04;-0.50;93.10
28460;DHT22;32528;45.712;9.192;2023-02-08T00:55:05;-0.50;93.10
28460;DHT22;32528;45.712;9.192;2023-02-08T00:57:07;-0.50;93.10
28460;DHT22;32528;45.712;9.192;2023-02-08T00:59:08;-0.50;93.10
28460;DHT22;32528;45.712;9.192;2023-02-08T01:01:08;-0.60;93.10
28460;DHT22;32528;45.712;9.192;2023-02-08T01:03:09;-0.60;93.30
28460;DHT22;32528;45.712;9.192;2023-02-08T01:05:10;-0.60;93.30
28460;DHT22;32528;45.712;9.192;2023-02-08T01:07:13;-0.70;93.20
28460;DHT22;32528;45.712;9.192;2023-02-08T01:09:14;-0.70;93.30
28460;DHT22;32528;45.712;9.192;2023-02-08T01:11:18;-0.70;93.40
28460;DHT22;32528;45.712;9.192;2023-02-08T01:13:19;-0.70;93.50
28460;DHT22;32528;45.712;9.192;2023-02-08T01:15:20;-0.70;93.50
28460;DHT22;32528;45.712;9.192;2023-02-08T01:17:21;-0.70;93.60
28460;DHT22;32528;45.712;9.192;2023-02-08T01:19:22;-0.60;93.10
28460;DHT22;32528;45.712;9.192;2023-02-08T01:21:25;-0.60;93.20
28460;DHT22;32528;45.712;9.192;2023-02-08T01:23:26;-0.60;93.30
28460;DHT22;32528;45.712;9.192;2023-02-08T01:25:27;-0.60;93.20
28460;DHT22;32528;45.712;9.192;2023-02-08T01:27:27;-0.60;93.30
28460;DHT22;32528;45.712;9.192;2023-02-08T01:29:28;-0.70;93.40
28460;DHT22;32528;45.712;9.192;2023-02-08T01:31:34;-0.70;93.60
28460;DHT22;32528;45.712;9.192;2023-02-08T01:33:35;-0.70;93.50
28460;DHT22;32528;45.712;9.192;2023-02-08T01:35:35;-0.80;93.40
28460;DHT22;32528;45.712;9.192;2023-02-08T01:37:38;-0.80;93.50
28460;DHT22;32528;45.712;9.192;2023-02-08T01:39:39;-0.80;93.50
28460;DHT22;32528;45.712;9.192;2023-02-08T01:41:42;-0.70;93.60
28460;DHT22;32528;45.712;9.192;2023-02-08T01:46:05;-0.90;93.60
28460;DHT22;32528;45.712;9.192;2023-02-08T01:48:17;-0.90;93.60
28460;DHT22;32528;45.712;9.192;2023-02-08T01:50:22;-0.90;93.80
28460;DHT22;32528;45.712;9.192;2023-02-08T01:52:24;-1.00;93.80
28460;DHT22;32528;45.712;9.192;2023-02-08T01:54:29;-1.00;93.80
28460;DHT22;32528;45.712;9.192;2023-02-08T01:56:34;-1.00;93.90
28460;DHT22;32528;45.712;9.192;2023-02-08T01:58:40;-1.00;94.00
28460;DHT22;32528;45.712;9.192;2023-02-08T02:00:42;-1.00;94.00
28460;DHT22;32528;45.712;9.192;2023-02-08T02:02:47;-1.00;94.10
28460;DHT22;32528;45.712;9.192;2023-02-08T02:04:52;-1.00;94.10
28460;DHT22;32528;45.712;9.192;2023-02-08T02:06:56;-1.00;94.00
28460;DHT22;32528;45.712;9.192;2023-02-08T02:09:11;-1.00;94.00
28460;DHT22;32528;45.712;9.192;2023-02-08T02:11:14;-1.00;93.90
28460;DHT22;32528;45.712;9.192;2023-02-08T02:13:21;-1.00;93.90
28460;DHT22;32528;45.712;9.192;2023-02-08T02:15:22;-1.00;93.80
28460;DHT22;32528;45.712;9.192;2023-02-08T02:17:23;-1.00;93.80
28460;DHT22;32528;45.712;9.192;2023-02-08T02:22:06;-1.10;93.90
28460;DHT22;32528;45.712;9.192;2023-02-08T02:32:09;-1.20;94.00
28460;DHT22;32528;45.712;9.192;2023-02-08T02:36:56;-1.30;94.20
28460;DHT22;32528;45.712;9.192;2023-02-08T02:41:53;-1.30;94.40
28460;DHT22;32528;45.712;9.192;2023-02-08T02:44:39;-1.40;94.60
28460;DHT22;32528;45.712;9.192;2023-02-08T02:46:49;-1.30;94.50
28460;DHT22;32528;45.712;9.192;2023-02-08T02:49:02;-1.30;94.50
28460;DHT22;32528;45.712;9.192;2023-02-08T02:51:17;-1.30;94.40
28460;DHT22;32528;45.712;9.192;2023-02-08T02:53:36;-1.30;94.40
28460;DHT22;32528;45.712;9.192;2023-02-08T02:55:42;-1.30;94.20
28460;DHT22;32528;45.712;9.192;2023-02-08T02:57:46;-1.40;94.20
28460;DHT22;32528;45.712;9.192;2023-02-08T02:59:49;-1.40;94.20
28460;DHT22;32528;45.712;9.192;2023-02-08T03:01:53;-1.40;94.10
28460;DHT22;32528;45.712;9.192;2023-02-08T03:03:54;-1.40;94.10
28460;DHT22;32528;45.712;9.192;2023-02-08T03:06:01;-1.50;94.20
28460;DHT22;32528;45.712;9.192;2023-02-08T03:10:25;-1.50;94.60
28460;DHT22;32528;45.712;9.192;2023-02-08T03:18:23;-1.50;94.70
28460;DHT22;32528;45.712;9.192;2023-02-08T03:20:32;-1.40;94.70
28460;DHT22;32528;45.712;9.192;2023-02-08T03:25:01;-1.40;94.60
28460;DHT22;32528;45.712;9.192;2023-02-08T03:27:27;-1.50;94.50
28460;DHT22;32528;45.712;9.192;2023-02-08T03:30:05;-1.40;94.50
28460;DHT22;32528;45.712;9.192;2023-02-08T03:32:21;-1.50;94.50
28460;DHT22;32528;45.712;9.192;2023-02-08T03:34:30;-1.50;94.70
28460;DHT22;32528;45.712;9.192;2023-02-08T03:36:57;-1.50;94.80
28460;DHT22;32528;45.712;9.192;2023-02-08T03:39:02;-1.50;94.80
28460;DHT22;32528;45.712;9.192;2023-02-08T03:41:06;-1.50;94.80
28460;DHT22;32528;45.712;9.192;2023-02-08T03:43:23;-1.50;94.90
28460;DHT22;32528;45.712;9.192;2023-02-08T03:45:49;-1.50;94.90
28460;DHT22;32528;45.712;9.192;2023-02-08T03:47:53;-1.50;94.90
28460;DHT22;32528;45.712;9.192;2023-02-08T03:49:57;-1.50;94.80
28460;DHT22;32528;45.712;9.192;2023-02-08T03:52:01;-1.50;95.20
28460;DHT22;32528;45.712;9.192;2023-02-08T03:54:06;-1.40;94.90
28460;DHT22;32528;45.712;9.192;2023-02-08T03:56:16;-1.50;94.60
28460;DHT22;32528;45.712;9.192;2023-02-08T03:58:30;-1.40;94.40
28460;DHT22;32528;45.712;9.192;2023-02-08T04:00:37;-1.50;94.40
28460;DHT22;32528;45.712;9.192;2023-02-08T04:02:47;-1.50;94.60
28460;DHT22;32528;45.712;9.192;2023-02-08T04:04:51;-1.50;94.70
28460;DHT22;32528;45.712;9.192;2023-02-08T04:06:53;-1.60;94.50
28460;DHT22;32528;45.712;9.192;2023-02-08T04:08:53;-1.60;94.40
28460;DHT22;32528;45.712;9.192;2023-02-08T04:10:57;-1.70;94.60
28460;DHT22;32528;45.712;9.192;2023-02-08T04:12:58;-1.70;94.80
28460;DHT22;32528;45.712;9.192;2023-02-08T04:14:58;-1.80;95.00
28460;DHT22;32528;45.712;9.192;2023-02-08T04:16:59;-1.80;95.10
28460;DHT22;32528;45.712;9.192;2023-02-08T04:19:00;-1.80;95.10
28460;DHT22;32528;45.712;9.192;2023-02-08T04:21:01;-1.80;95.10
28460;DHT22;32528;45.712;9.192;2023-02-08T04:23:03;-1.80;95.10
28460;DHT22;32528;45.712;9.192;2023-02-08T04:25:04;-1.80;95.00
28460;DHT22;32528;45.712;9.192;2023-02-08T04:27:05;-1.80;95.20
28460;DHT22;32528;45.712;9.192;2023-02-08T04:29:05;-1.80;94.90
28460;DHT22;32528;45.712;9.192;2023-02-08T04:31:06;-1.80;94.90
28460;DHT22;32528;45.712;9.192;2023-02-08T04:33:07;-1.70;94.80
28460;DHT22;32528;45.712;9.192;2023-02-08T04:35:08;-1.80;94.80
28460;DHT22;32528;45.712;9.192;2023-02-08T04:37:09;-1.80;94.90
28460;DHT22;32528;45.712;9.192;2023-02-08T04:39:10;-1.80;94.80
28460;DHT22;32528;45.712;9.192;2023-02-08T04:41:13;-1.80;94.70
28460;DHT22;32528;45.712;9.192;2023-02-08T04:43:14;-1.80;94.90
28460;DHT22;32528;45.712;9.192;2023-02-08T04:45:14;-1.90;95.10
28460;DHT22;32528;45.712;9.192;2023-02-08T04:47:16;-1.90;95.10
28460;DHT22;32528;45.712;9.192;2023-02-08T04:49:17;-2.00;95.30
28460;DHT22;32528;45.712;9.192;2023-02-08T04:51:18;-2.00;95.20
28460;DHT22;32528;45.712;9.192;2023-02-08T04:53:19;-1.90;95.30
28460;DHT22;32528;45.712;9.192;2023-02-08T04:55:20;-1.90;95.20
28460;DHT22;32528;45.712;9.192;2023-02-08T04:57:21;-1.90;95.40
28460;DHT22;32528;45.712;9.192;2023-02-08T04:59:22;-1.80;95.40
28460;DHT22;32528;45.712;9.192;2023-02-08T05:01:22;-1.90;95.30
28460;DHT22;32528;45.712;9.192;2023-02-08T05:03:23;-1.80;95.20
28460;DHT22;32528;45.712;9.192;2023-02-08T05:05:25;-1.80;95.20
28460;DHT22;32528;45.712;9.192;2023-02-08T05:07:27;-1.90;95.20
28460;DHT22;32528;45.712;9.192;2023-02-08T05:09:27;-1.90;95.20
28460;DHT22;32528;45.712;9.192;2023-02-08T05:11:28;-1.90;95.30
28460;DHT22;32528;45.712;9.192;2023-02-08T05:13:30;-1.90;95.20
28460;DHT22;32528;45.712;9.192;2023-02-08T05:15:30;-1.80;94.80
28460;DHT22;32528;45.712;9.192;2023-02-08T05:17:33;-1.90;94.70
28460;DHT22;32528;45.712;9.192;2023-02-08T05:19:33;-1.90;94.80
28460;DHT22;32528;45.712;9.192;2023-02-08T05:21:34;-1.90;94.80
28460;DHT22;32528;45.712;9.192;2023-02-08T05:23:35;-1.90;94.80
28460;DHT22;32528;45.712;9.192;2023-02-08T05:25:37;-1.90;94.80
28460;DHT22;32528;45.712;9.192;2023-02-08T05:27:39;-1.90;94.90
28460;DHT22;32528;45.712;9.192;2023-02-08T05:29:40;-2.00;95.00
28460;DHT22;32528;45.712;9.192;2023-02-08T05:31:42;-1.90;95.10
28460;DHT22;32528;45.712;9.192;2023-02-08T05:33:43;-1.90;95.00
28460;DHT22;32528;45.712;9.192;2023-02-08T05:35:44;-1.90;95.10
28460;DHT22;32528;45.712;9.192;2023-02-08T05:37:45;-1.90;94.90
28460;DHT22;32528;45.712;9.192;2023-02-08T05:39:46;-1.90;94.70
28460;DHT22;32528;45.712;9.192;2023-02-08T05:41:46;-1.90;94.70
28460;DHT22;32528;45.712;9.192;2023-02-08T05:43:47;-1.90;94.80
28460;DHT22;32528;45.712;9.192;2023-02-08T05:45:49;-1.90;94.80
28460;DHT22;32528;45.712;9.192;2023-02-08T05:47:50;-1.90;94.80
28460;DHT22;32528;45.712;9.192;2023-02-08T05:49:51;-2.00;94.70
28460;DHT22;32528;45.712;9.192;2023-02-08T05:51:52;-2.00;94.80
28460;DHT22;32528;45.712;9.192;2023-02-08T05:53:52;-2.00;94.70
28460;DHT22;32528;45.712;9.192;2023-02-08T05:55:53;-2.00;94.70
28460;DHT22;32528;45.712;9.192;2023-02-08T05:57:54;-2.10;94.80
28460;DHT22;32528;45.712;9.192;2023-02-08T05:59:54;-2.10;94.80
28460;DHT22;32528;45.712;9.192;2023-02-08T06:01:55;-2.10;94.90
28460;DHT22;32528;45.712;9.192;2023-02-08T06:03:58;-2.10;94.90
28460;DHT22;32528;45.712;9.192;2023-02-08T06:05:59;-2.10;94.80
28460;DHT22;32528;45.712;9.192;2023-02-08T06:08:01;-2.10;95.00
28460;DHT22;32528;45.712;9.192;2023-02-08T06:10:02;-2.10;95.10
28460;DHT22;32528;45.712;9.192;2023-02-08T06:12:03;-2.20;95.20
28460;DHT22;32528;45.712;9.192;2023-02-08T06:14:04;-2.20;95.30
28460;DHT22;32528;45.712;9.192;2023-02-08T06:16:05;-2.20;95.30
28460;DHT22;32528;45.712;9.192;2023-02-08T06:18:06;-2.20;95.30
28460;DHT22;32528;45.712;9.192;2023-02-08T06:20:09;-2.20;95.30
28460;DHT22;32528;45.712;9.192;2023-02-08T06:22:09;-2.20;95.20
28460;DHT22;32528;45.712;9.192;2023-02-08T06:24:10;-2.20;95.20
28460;DHT22;32528;45.712;9.192;2023-02-08T06:26:11;-2.20;95.30
28460;DHT22;32528;45.712;9.192;2023-02-08T06:28:12;-2.10;94.80
28460;DHT22;32528;45.712;9.192;2023-02-08T06:30:13;-2.10;94.90
28460;DHT22;32528;45.712;9.192;2023-02-08T06:32:13;-2.10;95.00
28460;DHT22;32528;45.712;9.192;2023-02-08T06:34:14;-2.10;95.00
28460;DHT22;32528;45.712;9.192;2023-02-08T06:36:15;-2.10;95.00
28460;DHT22;32528;45.712;9.192;2023-02-08T06:38:16;-2.10;95.00
28460;DHT22;32528;45.712;9.192;2023-02-08T06:40:17;-2.00;95.30
28460;DHT22;32528;45.712;9.192;2023-02-08T06:42:17;-2.10;95.00
28460;DHT22;32528;45.712;9.192;2023-02-08T06:44:18;-2.00;95.10
28460;DHT22;32528;45.712;9.192;2023-02-08T06:46:19;-2.00;95.10
28460;DHT22;32528;45.712;9.192;2023-02-08T06:48:20;-2.10;95.10
28460;DHT22;32528;45.712;9.192;2023-02-08T06:50:20;-2.10;95.10
28460;DHT22;32528;45.712;9.192;2023-02-08T06:52:23;-2.10;95.20
28460;DHT22;32528;45.712;9.192;2023-02-08T06:54:23;-2.10;95.20
28460;DHT22;32528;45.712;9.192;2023-02-08T06:56:24;-2.10;95.20
28460;DHT22;32528;45.712;9.192;2023-02-08T06:58:25;-2.00;95.20
28460;DHT22;32528;45.712;9.192;2023-02-08T07:00:25;-2.00;95.20
28460;DHT22;32528;45.712;9.192;2023-02-08T07:02:26;-2.00;95.10
28460;DHT22;32528;45.712;9.192;2023-02-08T07:04:27;-1.90;95.10
28460;DHT22;32528;45.712;9.192;2023-02-08T07:06:28;-1.90;95.20
28460;DHT22;32528;45.712;9.192;2023-02-08T07:08:28;-1.90;95.20
28460;DHT22;32528;45.712;9.192;2023-02-08T07:10:29;-1.80;95.10
28460;DHT22;32528;45.712;9.192;2023-02-08T07:12:34;-1.80;95.00
28460;DHT22;32528;45.712;9.192;2023-02-08T07:14:38;-1.70;94.90
28460;DHT22;32528;45.712;9.192;2023-02-08T07:16:39;-1.60;94.80
28460;DHT22;32528;45.712;9.192;2023-02-08T07:18:39;-1.60;94.90
28460;DHT22;32528;45.712;9.192;2023-02-08T07:20:41;-1.60;94.90
28460;DHT22;32528;45.712;9.192;2023-02-08T07:22:41;-1.60;94.70
28460;DHT22;32528;45.712;9.192;2023-02-08T07:24:42;-1.60;94.70
28460;DHT22;32528;45.712;9.192;2023-02-08T07:26:43;-1.50;94.90
28460;DHT22;32528;45.712;9.192;2023-02-08T07:28:44;-1.40;94.90
28460;DHT22;32528;45.712;9.192;2023-02-08T07:30:44;-1.40;94.80
28460;DHT22;32528;45.712;9.192;2023-02-08T07:32:47;-1.30;94.80
28460;DHT22;32528;45.712;9.192;2023-02-08T07:34:47;-1.20;94.80
28460;DHT22;32528;45.712;9.192;2023-02-08T07:36:48;-1.10;94.80
28460;DHT22;32528;45.712;9.192;2023-02-08T07:38:49;-1.10;94.70
28460;DHT22;32528;45.712;9.192;2023-02-08T07:40:50;-1.00;94.70
28460;DHT22;32528;45.712;9.192;2023-02-08T07:42:51;-0.90;94.60
28460;DHT22;32528;45.712;9.192;2023-02-08T07:45:03;-0.80;94.60
28460;DHT22;32528;45.712;9.192;2023-02-08T07:47:04;-0.70;94.30
28460;DHT22;32528;45.712;9.192;2023-02-08T07:49:05;-0.60;94.20
28460;DHT22;32528;45.712;9.192;2023-02-08T07:51:07;-0.50;94.20
28460;DHT22;32528;45.712;9.192;2023-02-08T07:53:08;-0.40;94.10
28460;DHT22;32528;45.712;9.192;2023-02-08T07:55:09;-0.30;94.10
28460;DHT22;32528;45.712;9.192;2023-02-08T07:57:12;-0.20;94.10
28460;DHT22;32528;45.712;9.192;2023-02-08T07:59:12;-0.10;94.20
28460;DHT22;32528;45.712;9.192;2023-02-08T08:01:14;-0.10;94.30
28460;DHT22;32528;45.712;9.192;2023-02-08T08:03:15;0.00;94.10
28460;DHT22;32528;45.712;9.192;2023-02-08T08:05:16;0.10;94.10
28460;DHT22;32528;45.712;9.192;2023-02-08T08:07:17;0.30;94.00
28460;DHT22;32528;45.712;9.192;2023-02-08T08:09:18;0.30;93.90
28460;DHT22;32528;45.712;9.192;2023-02-08T08:11:20;0.50;93.90
28460;DHT22;32528;45.712;9.192;2023-02-08T08:13:21;0.60;93.80
28460;DHT22;32528;45.712;9.192;2023-02-08T08:15:21;0.70;93.90
28460;DHT22;32528;45.712;9.192;2023-02-08T08:17:22;0.80;93.90
28460;DHT22;32528;45.712;9.192;2023-02-08T08:19:24;0.90;94.00
28460;DHT22;32528;45.712;9.192;2023-02-08T08:21:25;1.10;94.00
28460;DHT22;32528;45.712;9.192;2023-02-08T08:23:25;1.10;93.70
28460;DHT22;32528;45.712;9.192;2023-02-08T08:25:28;1.30;93.80
28460;DHT22;32528;45.712;9.192;2023-02-08T08:27:29;1.40;93.80
28460;DHT22;32528;45.712;9.192;2023-02-08T08:29:36;1.50;93.60
28460;DHT22;32528;45.712;9.192;2023-02-08T08:31:37;1.60;93.40
28460;DHT22;32528;45.712;9.192;2023-02-08T08:33:38;1.80;93.40
28460;DHT22;32528;45.712;9.192;2023-02-08T08:35:39;2.10;92.80
28460;DHT22;32528;45.712;9.192;2023-02-08T08:37:40;2.40;92.60
28460;DHT22;32528;45.712;9.192;2023-02-08T08:39:41;2.60;92.40
28460;DHT22;32528;45.712;9.192;2023-02-08T08:41:42;2.80;92.10
28460;DHT22;32528;45.712;9.192;2023-02-08T08:43:43;2.90;91.90
28460;DHT22;32528;45.712;9.192;2023-02-08T08:45:44;3.00;91.30
28460;DHT22;32528;45.712;9.192;2023-02-08T08:47:44;3.20;91.00
28460;DHT22;32528;45.712;9.192;2023-02-08T08:49:45;3.30;90.80
28460;DHT22;32528;45.712;9.192;2023-02-08T08:51:46;3.50;90.40
28460;DHT22;32528;45.712;9.192;2023-02-08T08:53:47;3.70;89.50
28460;DHT22;32528;45.712;9.192;2023-02-08T08:55:47;3.80;87.10
28460;DHT22;32528;45.712;9.192;2023-02-08T08:57:48;3.90;85.80
28460;DHT22;32528;45.712;9.192;2023-02-08T08:59:51;4.00;84.70
28460;DHT22;32528;45.712;9.192;2023-02-08T09:01:53;4.10;83.20
28460;DHT22;32528;45.712;9.192;2023-02-08T09:03:53;4.10;82.90
28460;DHT22;32528;45.712;9.192;2023-02-08T09:05:55;4.20;81.70
28460;DHT22;32528;45.712;9.192;2023-02-08T09:07:56;4.20;79.80
28460;DHT22;32528;45.712;9.192;2023-02-08T09:09:57;4.20;77.50
28460;DHT22;32528;45.712;9.192;2023-02-08T09:11:57;4.30;75.00
28460;DHT22;32528;45.712;9.192;2023-02-08T09:14:01;4.30;75.50
28460;DHT22;32528;45.712;9.192;2023-02-08T09:18:10;4.20;74.20
28460;DHT22;32528;45.712;9.192;2023-02-08T09:20:10;4.30;74.10
28460;DHT22;32528;45.712;9.192;2023-02-08T09:22:11;4.40;74.70
28460;DHT22;32528;45.712;9.192;2023-02-08T09:24:12;4.50;74.70
28460;DHT22;32528;45.712;9.192;2023-02-08T09:26:15;4.50;73.10
28460;DHT22;32528;45.712;9.192;2023-02-08T09:28:17;4.60;71.60
28460;DHT22;32528;45.712;9.192;2023-02-08T09:30:17;4.60;71.30
28460;DHT22;32528;45.712;9.192;2023-02-08T09:32:18;4.70;71.70
28460;DHT22;32528;45.712;9.192;2023-02-08T09:34:21;4.80;71.10
28460;DHT22;32528;45.712;9.192;2023-02-08T09:36:23;4.90;71.00
28460;DHT22;32528;45.712;9.192;2023-02-08T09:38:25;4.90;70.00
28460;DHT22;32528;45.712;9.192;2023-02-08T09:40:37;5.10;69.30
28460;DHT22;32528;45.712;9.192;2023-02-08T09:42:49;5.20;70.20
28460;DHT22;32528;45.712;9.192;2023-02-08T09:45:26;5.10;68.20
28460;DHT22;32528;45.712;9.192;2023-02-08T09:47:47;5.00;67.60
28460;DHT22;32528;45.712;9.192;2023-02-08T09:50:12;5.00;68.10
28460;DHT22;32528;45.712;9.192;2023-02-08T09:52:17;5.20;68.10
28460;DHT22;32528;45.712;9.192;2023-02-08T09:54:33;5.40;68.20
28460;DHT22;32528;45.712;9.192;2023-02-08T09:56:37;5.40;68.40
28460;DHT22;32528;45.712;9.192;2023-02-08T09:58:43;5.40;66.10
28460;DHT22;32528;45.712;9.192;2023-02-08T10:00:44;5.40;65.70
28460;DHT22;32528;45.712;9.192;2023-02-08T10:02:46;5.50;65.80
28460;DHT22;32528;45.712;9.192;2023-02-08T10:05:03;5.50;66.10
28460;DHT22;32528;45.712;9.192;2023-02-08T10:07:05;5.40;65.30
28460;DHT22;32528;45.712;9.192;2023-02-08T10:09:11;5.40;64.90
28460;DHT22;32528;45.712;9.192;2023-02-08T10:21:12;6.10;69.30
28460;DHT22;32528;45.712;9.192;2023-02-08T10:34:42;6.30;65.10
28460;DHT22;32528;45.712;9.192;2023-02-08T10:36:44;6.40;65.20
28460;DHT22;32528;45.712;9.192;2023-02-08T10:38:48;6.50;64.60
28460;DHT22;32528;45.712;9.192;2023-02-08T10:41:01;6.50;64.70
28460;DHT22;32528;45.712;9.192;2023-02-08T10:43:26;6.60;64.70
28460;DHT22;32528;45.712;9.192;2023-02-08T10:45:48;6.70;63.80
28460;DHT22;32528;45.712;9.192;2023-02-08T10:47:57;6.70;63.50
28460;DHT22;32528;45.712;9.192;2023-02-08T10:52:32;6.60;63.20
28460;DHT22;32528;45.712;9.192;2023-02-08T10:54:34;6.70;63.80
28460;DHT22;32528;45.712;9.192;2023-02-08T10:56:51;6.60;62.00
28460;DHT22;32528;45.712;9.192;2023-02-08T10:58:57;6.60;62.00
28460;DHT22;32528;45.712;9.192;2023-02-08T11:00:58;6.60;62.90
28460;DHT22;32528;45.712;9.192;2023-02-08T11:03:07;6.60;62.30
28460;DHT22;32528;45.712;9.192;2023-02-08T11:05:16;6.60;61.90
28460;DHT22;32528;45.712;9.192;2023-02-08T11:07:19;6.70;61.10
28460;DHT22;32528;45.712;9.192;2023-02-08T11:09:30;6.70;61.80
28460;DHT22;32528;45.712;9.192;2023-02-08T11:11:36;6.80;61.80
28460;DHT22;32528;45.712;9.192;2023-02-08T11:13:43;6.90;61.90
28460;DHT22;32528;45.712;9.192;2023-02-08T11:15:50;6.90;61.30
28460;DHT22;32528;45.712;9.192;2023-02-08T11:18:00;6.90;60.60
28460;DHT22;32528;45.712;9.192;2023-02-08T11:20:02;6.90;60.70
28460;DHT22;32528;45.712;9.192;2023-02-08T11:22:03;6.90;61.10
28460;DHT22;32528;45.712;9.192;2023-02-08T11:24:27;6.80;59.40
28460;DHT22;32528;45.712;9.192;2023-02-08T11:28:30;6.90;60.60
28460;DHT22;32528;45.712;9.192;2023-02-08T11:30:31;7.00;60.20
28460;DHT22;32528;45.712;9.192;2023-02-08T11:32:33;7.00;59.10
28460;DHT22;32528;45.712;9.192;2023-02-08T11:34:36;6.90;59.20
28460;DHT22;32528;45.712;9.192;2023-02-08T11:36:45;7.00;59.70
28460;DHT22;32528;45.712;9.192;2023-02-08T11:38:46;7.20;59.70
28460;DHT22;32528;45.712;9.192;2023-02-08T11:40:48;7.10;59.10
28460;DHT22;32528;45.712;9.192;2023-02-08T11:42:50;7.10;59.00
28460;DHT22;32528;45.712;9.192;2023-02-08T11:44:52;7.20;58.50
28460;DHT22;32528;45.712;9.192;2023-02-08T11:46:56;7.20;58.70
28460;DHT22;32528;45.712;9.192;2023-02-08T11:48:59;7.20;58.40
28460;DHT22;32528;45.712;9.192;2023-02-08T11:51:02;7.00;57.90
28460;DHT22;32528;45.712;9.192;2023-02-08T11:55:30;7.20;58.50
28460;DHT22;32528;45.712;9.192;2023-02-08T11:57:32;7.20;58.50
28460;DHT22;32528;45.712;9.192;2023-02-08T11:59:32;7.30;58.40
28460;DHT22;32528;45.712;9.192;2023-02-08T12:01:35;7.30;58.70
28460;DHT22;32528;45.712;9.192;2023-02-08T12:03:38;7.50;58.30
28460;DHT22;32528;45.712;9.192;2023-02-08T12:08:22;7.40;57.60
28460;DHT22;32528;45.712;9.192;2023-02-08T12:22:17;7.60;57.50
28460;DHT22;32528;45.712;9.192;2023-02-08T12:24:44;7.70;57.30
28460;DHT22;32528;45.712;9.192;2023-02-08T12:31:35;7.80;57.20
28460;DHT22;32528;45.712;9.192;2023-02-08T12:45:51;7.70;56.90
28460;DHT22;32528;45.712;9.192;2023-02-08T12:50:54;7.80;57.20
28460;DHT22;32528;45.712;9.192;2023-02-08T12:53:04;7.90;58.00
28460;DHT22;32528;45.712;9.192;2023-02-08T12:57:29;8.10;56.40
28460;DHT22;32528;45.712;9.192;2023-02-08T12:59:41;8.20;56.70
28460;DHT22;32528;45.712;9.192;2023-02-08T13:01:48;8.20;56.70
28460;DHT22;32528;45.712;9.192;2023-02-08T13:04:07;8.30;56.80
28460;DHT22;32528;45.712;9.192;2023-02-08T13:06:23;8.30;55.90
28460;DHT22;32528;45.712;9.192;2023-02-08T13:08:59;8.20;56.60
28460;DHT22;32528;45.712;9.192;2023-02-08T13:11:05;8.10;56.10
28460;DHT22;32528;45.712;9.192;2023-02-08T13:13:22;8.00;56.10
28460;DHT22;32528;45.712;9.192;2023-02-08T13:15:56;8.10;56.50
28460;DHT22;32528;45.712;9.192;2023-02-08T13:18:12;8.20;56.90
28460;DHT22;32528;45.712;9.192;2023-02-08T13:20:38;8.20;57.10
28460;DHT22;32528;45.712;9.192;2023-02-08T13:22:41;8.20;57.50
28460;DHT22;32528;45.712;9.192;2023-02-08T13:24:44;8.10;56.70
28460;DHT22;32528;45.712;9.192;2023-02-08T13:26:45;8.20;56.50
28460;DHT22;32528;45.712;9.192;2023-02-08T13:28:49;8.20;56.40
28460;DHT22;32528;45.712;9.192;2023-02-08T13:31:01;8.20;56.40
28460;DHT22;32528;45.712;9.192;2023-02-08T13:33:27;8.20;57.00
28460;DHT22;32528;45.712;9.192;2023-02-08T13:35:29;8.20;57.50
28460;DHT22;32528;45.712;9.192;2023-02-08T13:37:33;8.30;57.10
28460;DHT22;32528;45.712;9.192;2023-02-08T13:39:42;8.40;56.50
28460;DHT22;32528;45.712;9.192;2023-02-08T13:41:51;8.50;56.70
28460;DHT22;32528;45.712;9.192;2023-02-08T13:44:07;8.40;57.30
28460;DHT22;32528;45.712;9.192;2023-02-08T13:46:10;8.30;57.90
28460;DHT22;32528;45.712;9.192;2023-02-08T13:48:14;8.20;58.30
28460;DHT22;32528;45.712;9.192;2023-02-08T13:50:43;8.20;58.30
28460;DHT22;32528;45.712;9.192;2023-02-08T13:52:46;8.30;57.80
28460;DHT22;32528;45.712;9.192;2023-02-08T13:57:50;8.30;58.20
28460;DHT22;32528;45.712;9.192;2023-02-08T14:00:25;8.30;58.80
28460;DHT22;32528;45.712;9.192;2023-02-08T14:02:27;8.30;58.50
28460;DHT22;32528;45.712;9.192;2023-02-08T14:04:34;8.30;58.40
28460;DHT22;32528;45.712;9.192;2023-02-08T14:11:09;8.40;57.90
28460;DHT22;32528;45.712;9.192;2023-02-08T14:13:27;8.30;58.30
28460;DHT22;32528;45.712;9.192;2023-02-08T14:15:33;8.30;58.50
28460;DHT22;32528;45.712;9.192;2023-02-08T14:17:36;8.30;59.30
28460;DHT22;32528;45.712;9.192;2023-02-08T14:19:42;8.30;59.00
28460;DHT22;32528;45.712;9.192;2023-02-08T14:22:01;8.40;58.40
28460;DHT22;32528;45.712;9.192;2023-02-08T14:24:05;8.40;58.90
28460;DHT22;32528;45.712;9.192;2023-02-08T14:26:09;8.30;58.90
28460;DHT22;32528;45.712;9.192;2023-02-08T14:28:37;8.20;59.30
28460;DHT22;32528;45.712;9.192;2023-02-08T14:30:39;8.20;59.60
28460;DHT22;32528;45.712;9.192;2023-02-08T14:32:46;8.20;59.50
28460;DHT22;32528;45.712;9.192;2023-02-08T14:34:48;8.20;59.30
28460;DHT22;32528;45.712;9.192;2023-02-08T14:37:43;8.20;59.50
28460;DHT22;32528;45.712;9.192;2023-02-08T14:39:28;8.30;59.80
28460;DHT22;32528;45.712;9.192;2023-02-08T14:41:53;8.30;59.70
28460;DHT22;32528;45.712;9.192;2023-02-08T14:43:54;8.30;59.60
28460;DHT22;32528;45.712;9.192;2023-02-08T14:45:55;8.30;59.90
28460;DHT22;32528;45.712;9.192;2023-02-08T14:50:07;8.20;59.90
28460;DHT22;32528;45.712;9.192;2023-02-08T14:52:20;8.20;60.10
28460;DHT22;32528;45.712;9.192;2023-02-08T14:54:40;8.10;60.20
28460;DHT22;32528;45.712;9.192;2023-02-08T14:56:55;8.10;60.40
28460;DHT22;32528;45.712;9.192;2023-02-08T14:59:23;8.20;60.30